Tropical Cyclones
[Index]
Season 2016-2017 Tropical Cyclone ERNIE Track Map
Season 2016-2017 Summaries: [BoM-AU] [JTWC-AU] [JTWC-SIO] [JTWC-SPAC] [JTWC-SH]
<<- Previous TC | BoM 2016-2017 Season | Next TC ->>

click for intensity scale information  Lat/long Grid: Show Hide

 Date Labels: Show Hide

Bureau of Meteorology Tropical Cyclone Data

Name: ERNIE

04 Apr 2017 06:00 UTC to 11 Apr 2017 18:00 UTC

    date/time    lat    long    hPa   cat  kts
2017-04-04 06    9.9   115.0   1008         20          
2017-04-04 12   10.3   114.3   1008         20          
2017-04-04 18   10.8   113.5   1008         20          
2017-04-05 00   11.2   112.8   1008         20          
2017-04-05 06   11.6   112.1   1006         20          
2017-04-05 12   11.8   111.9   1003         25          
2017-04-05 18   12.5   111.3   1001         30          
2017-04-06 00   13.0   111.2    998         35          
2017-04-06 06   13.3   110.9    995    1    40          
2017-04-06 12   13.9   110.7    992    1    45          
2017-04-06 18   14.7   110.4    987    1    55          
2017-04-07 00   14.9   110.3    973    2    70          
2017-04-07 06   15.3   110.4    951    4    95          
2017-04-07 12   15.8   110.4    924    5    120          
2017-04-07 18   15.9   110.4    927    5    115          
2017-04-08 00   16.2   110.4    940    4    105          
2017-04-08 06   16.5   109.9    946    4    95          
2017-04-08 12   16.6   109.5    955    4    85          
2017-04-08 18   16.6   108.7    971    2    75          
2017-04-09 00   17.0   108.4    974    2    70          
2017-04-09 06   17.4   107.5    977    2    60          
2017-04-09 12   17.7   106.7    980    2    55          
2017-04-09 18   17.8   105.3    985    2    50          
2017-04-10 00   18.2   104.2    996         40          
2017-04-10 06   18.7   103.0   1000         30          
2017-04-10 12   19.0   101.9   1005         25          
2017-04-10 18   19.2   101.0   1005         25          
2017-04-11 00   20.0   100.2   1005         25          
2017-04-11 06   20.9    99.4   1005         25          
2017-04-11 12   21.3    98.8   1006         25          
2017-04-11 18   21.7    98.2   1006         25          
Winds are 10-min average.

Tropical cyclone tracks developed by Michael Bath using data from the Bureau of Meteorology and Google Maps.


Document: tropical_cyclone_ernie.htm
Updated: 17 June 2020
[Australian Severe Weather index] [Copyright Notice] [Email Contacts] [Search This Site] [Privacy Policy]


Main Index Home Page Stock Weather Photos Extreme Storms Discussion Storm News and Storm Chasing Reports Tropical Cyclones / Hurricanes / Typhoons Weather Data and Links Wild Fires / Bushfires Weather Observation Techniques Weather Picture Catalogue Tornado Pictures and Reports Stock Video Footage and DVDs for sale